sensor_id;sensor_type;location;lat;lon;timestamp;temperature;humidity
14517;DHT22;7344;50.864;4.362;2023-07-22T00:01:51;16.70;4.30
14517;DHT22;7344;50.864;4.362;2023-07-22T00:04:17;16.70;6.20
14517;DHT22;7344;50.864;4.362;2023-07-22T00:06:42;16.60;8.90
14517;DHT22;7344;50.864;4.362;2023-07-22T00:09:08;16.60;10.10
14517;DHT22;7344;50.864;4.362;2023-07-22T00:11:35;16.60;10.00
14517;DHT22;7344;50.864;4.362;2023-07-22T00:14:01;16.60;12.30
14517;DHT22;7344;50.864;4.362;2023-07-22T00:16:27;16.60;11.00
14517;DHT22;7344;50.864;4.362;2023-07-22T00:18:54;16.60;11.80
14517;DHT22;7344;50.864;4.362;2023-07-22T00:21:20;16.50;12.50
14517;DHT22;7344;50.864;4.362;2023-07-22T00:23:46;16.50;14.70
14517;DHT22;7344;50.864;4.362;2023-07-22T00:26:11;16.40;15.50
14517;DHT22;7344;50.864;4.362;2023-07-22T00:28:37;16.40;16.40
14517;DHT22;7344;50.864;4.362;2023-07-22T00:31:03;16.30;16.60
14517;DHT22;7344;50.864;4.362;2023-07-22T00:33:28;16.30;19.00
14517;DHT22;7344;50.864;4.362;2023-07-22T00:35:54;16.30;19.10
14517;DHT22;7344;50.864;4.362;2023-07-22T00:38:20;16.30;19.90
14517;DHT22;7344;50.864;4.362;2023-07-22T00:40:46;16.40;18.30
14517;DHT22;7344;50.864;4.362;2023-07-22T00:43:12;16.40;18.00
14517;DHT22;7344;50.864;4.362;2023-07-22T00:45:38;16.40;17.70
14517;DHT22;7344;50.864;4.362;2023-07-22T00:48:05;16.30;19.00
14517;DHT22;7344;50.864;4.362;2023-07-22T00:50:31;16.20;23.00
14517;DHT22;7344;50.864;4.362;2023-07-22T00:52:58;16.20;25.00
14517;DHT22;7344;50.864;4.362;2023-07-22T00:55:24;16.10;26.60
14517;DHT22;7344;50.864;4.362;2023-07-22T00:57:50;16.10;27.80
14517;DHT22;7344;50.864;4.362;2023-07-22T01:00:16;16.10;27.70
14517;DHT22;7344;50.864;4.362;2023-07-22T01:02:42;16.10;29.10
14517;DHT22;7344;50.864;4.362;2023-07-22T01:05:10;16.10;28.30
14517;DHT22;7344;50.864;4.362;2023-07-22T01:07:37;16.20;27.80
14517;DHT22;7344;50.864;4.362;2023-07-22T01:10:06;16.10;25.80
14517;DHT22;7344;50.864;4.362;2023-07-22T01:12:33;16.10;25.80
14517;DHT22;7344;50.864;4.362;2023-07-22T01:14:59;16.00;27.00
14517;DHT22;7344;50.864;4.362;2023-07-22T01:17:25;16.10;27.00
14517;DHT22;7344;50.864;4.362;2023-07-22T01:19:51;16.00;28.20
14517;DHT22;7344;50.864;4.362;2023-07-22T01:22:18;16.00;29.30
14517;DHT22;7344;50.864;4.362;2023-07-22T01:24:45;16.10;30.70
14517;DHT22;7344;50.864;4.362;2023-07-22T01:27:12;16.00;31.10
14517;DHT22;7344;50.864;4.362;2023-07-22T01:29:39;16.00;33.10
14517;DHT22;7344;50.864;4.362;2023-07-22T01:32:05;16.00;35.00
14517;DHT22;7344;50.864;4.362;2023-07-22T01:34:31;15.90;35.90
14517;DHT22;7344;50.864;4.362;2023-07-22T01:36:57;15.90;37.80
14517;DHT22;7344;50.864;4.362;2023-07-22T01:39:23;15.80;36.90
14517;DHT22;7344;50.864;4.362;2023-07-22T01:41:48;15.80;37.50
14517;DHT22;7344;50.864;4.362;2023-07-22T01:44:14;15.70;38.70
14517;DHT22;7344;50.864;4.362;2023-07-22T01:46:40;15.70;41.80
14517;DHT22;7344;50.864;4.362;2023-07-22T01:49:10;15.60;46.70
14517;DHT22;7344;50.864;4.362;2023-07-22T01:51:56;15.50;46.70
14517;DHT22;7344;50.864;4.362;2023-07-22T01:54:21;15.50;51.00
14517;DHT22;7344;50.864;4.362;2023-07-22T01:56:47;15.50;51.60
14517;DHT22;7344;50.864;4.362;2023-07-22T01:59:13;15.50;54.20
14517;DHT22;7344;50.864;4.362;2023-07-22T02:01:38;15.40;53.70
14517;DHT22;7344;50.864;4.362;2023-07-22T02:04:04;15.30;55.20
14517;DHT22;7344;50.864;4.362;2023-07-22T02:06:29;15.20;58.90
14517;DHT22;7344;50.864;4.362;2023-07-22T02:08:55;15.10;62.60
14517;DHT22;7344;50.864;4.362;2023-07-22T02:11:21;15.10;65.40
14517;DHT22;7344;50.864;4.362;2023-07-22T02:13:47;15.00;70.60
14517;DHT22;7344;50.864;4.362;2023-07-22T02:16:12;14.90;72.60
14517;DHT22;7344;50.864;4.362;2023-07-22T02:18:38;14.90;74.80
14517;DHT22;7344;50.864;4.362;2023-07-22T02:21:04;14.90;79.30
14517;DHT22;7344;50.864;4.362;2023-07-22T02:23:29;14.90;81.80
14517;DHT22;7344;50.864;4.362;2023-07-22T02:25:55;14.80;79.80
14517;DHT22;7344;50.864;4.362;2023-07-22T02:28:21;14.70;82.70
14517;DHT22;7344;50.864;4.362;2023-07-22T02:30:52;14.60;86.90
14517;DHT22;7344;50.864;4.362;2023-07-22T02:33:18;14.70;91.40
14517;DHT22;7344;50.864;4.362;2023-07-22T02:35:44;14.70;92.20
14517;DHT22;7344;50.864;4.362;2023-07-22T02:38:10;14.60;93.20
14517;DHT22;7344;50.864;4.362;2023-07-22T02:40:37;14.60;94.30
14517;DHT22;7344;50.864;4.362;2023-07-22T02:43:03;14.60;95.90
14517;DHT22;7344;50.864;4.362;2023-07-22T02:45:29;14.60;96.10
14517;DHT22;7344;50.864;4.362;2023-07-22T02:47:55;14.60;97.00
14517;DHT22;7344;50.864;4.362;2023-07-22T02:50:20;14.60;97.80
14517;DHT22;7344;50.864;4.362;2023-07-22T02:52:46;14.60;99.90
14517;DHT22;7344;50.864;4.362;2023-07-22T02:55:14;14.60;99.90
14517;DHT22;7344;50.864;4.362;2023-07-22T02:57:40;14.60;99.90
14517;DHT22;7344;50.864;4.362;2023-07-22T03:00:07;14.50;99.90
14517;DHT22;7344;50.864;4.362;2023-07-22T03:02:37;14.50;99.90
14517;DHT22;7344;50.864;4.362;2023-07-22T03:05:07;14.50;99.90
14517;DHT22;7344;50.864;4.362;2023-07-22T03:07:37;14.50;99.90
14517;DHT22;7344;50.864;4.362;2023-07-22T03:10:04;14.40;99.90
14517;DHT22;7344;50.864;4.362;2023-07-22T03:12:30;14.40;99.90
14517;DHT22;7344;50.864;4.362;2023-07-22T03:14:55;14.50;99.90
14517;DHT22;7344;50.864;4.362;2023-07-22T03:17:22;14.40;99.90
14517;DHT22;7344;50.864;4.362;2023-07-22T03:19:48;14.40;99.90
14517;DHT22;7344;50.864;4.362;2023-07-22T03:22:14;14.40;99.90
14517;DHT22;7344;50.864;4.362;2023-07-22T03:24:42;14.30;99.90
14517;DHT22;7344;50.864;4.362;2023-07-22T03:27:07;14.40;99.90
14517;DHT22;7344;50.864;4.362;2023-07-22T03:29:33;14.40;99.90
14517;DHT22;7344;50.864;4.362;2023-07-22T03:31:59;14.40;99.90
14517;DHT22;7344;50.864;4.362;2023-07-22T03:34:29;14.40;99.90
14517;DHT22;7344;50.864;4.362;2023-07-22T03:36:55;14.40;99.90
14517;DHT22;7344;50.864;4.362;2023-07-22T03:39:21;14.40;99.90
14517;DHT22;7344;50.864;4.362;2023-07-22T03:41:46;14.40;99.90
14517;DHT22;7344;50.864;4.362;2023-07-22T03:44:12;14.40;99.90
14517;DHT22;7344;50.864;4.362;2023-07-22T03:46:38;14.50;99.90
14517;DHT22;7344;50.864;4.362;2023-07-22T03:49:04;14.50;99.90
14517;DHT22;7344;50.864;4.362;2023-07-22T03:51:29;14.50;99.90
14517;DHT22;7344;50.864;4.362;2023-07-22T03:53:55;14.40;99.90
14517;DHT22;7344;50.864;4.362;2023-07-22T03:56:21;14.50;99.90
14517;DHT22;7344;50.864;4.362;2023-07-22T03:58:49;14.50;99.90
14517;DHT22;7344;50.864;4.362;2023-07-22T04:01:15;14.50;99.90
14517;DHT22;7344;50.864;4.362;2023-07-22T04:03:40;14.50;99.90
14517;DHT22;7344;50.864;4.362;2023-07-22T04:06:06;14.60;99.90
14517;DHT22;7344;50.864;4.362;2023-07-22T04:08:32;14.60;99.90
14517;DHT22;7344;50.864;4.362;2023-07-22T04:10:58;14.60;99.90
14517;DHT22;7344;50.864;4.362;2023-07-22T04:13:25;14.60;99.90
14517;DHT22;7344;50.864;4.362;2023-07-22T04:15:51;14.60;99.90
14517;DHT22;7344;50.864;4.362;2023-07-22T04:18:17;14.60;99.90
14517;DHT22;7344;50.864;4.362;2023-07-22T04:20:43;14.60;99.90
14517;DHT22;7344;50.864;4.362;2023-07-22T04:23:09;14.70;99.90
14517;DHT22;7344;50.864;4.362;2023-07-22T04:25:42;14.80;99.90
14517;DHT22;7344;50.864;4.362;2023-07-22T04:28:08;14.80;99.90
14517;DHT22;7344;50.864;4.362;2023-07-22T04:30:34;14.80;99.90
14517;DHT22;7344;50.864;4.362;2023-07-22T04:33:00;14.90;99.90
14517;DHT22;7344;50.864;4.362;2023-07-22T04:35:26;14.90;99.90
14517;DHT22;7344;50.864;4.362;2023-07-22T04:37:51;14.90;99.90
14517;DHT22;7344;50.864;4.362;2023-07-22T04:40:18;14.90;99.90
14517;DHT22;7344;50.864;4.362;2023-07-22T04:42:44;15.00;99.90
14517;DHT22;7344;50.864;4.362;2023-07-22T04:45:11;15.10;99.90
14517;DHT22;7344;50.864;4.362;2023-07-22T04:47:37;15.10;99.90
14517;DHT22;7344;50.864;4.362;2023-07-22T04:50:04;15.10;99.90
14517;DHT22;7344;50.864;4.362;2023-07-22T04:52:35;15.20;99.90
14517;DHT22;7344;50.864;4.362;2023-07-22T04:55:00;15.20;99.90
14517;DHT22;7344;50.864;4.362;2023-07-22T04:57:27;15.20;99.90
14517;DHT22;7344;50.864;4.362;2023-07-22T04:59:53;15.20;99.90
14517;DHT22;7344;50.864;4.362;2023-07-22T05:02:18;15.30;99.90
14517;DHT22;7344;50.864;4.362;2023-07-22T05:04:44;15.30;99.90
14517;DHT22;7344;50.864;4.362;2023-07-22T05:07:10;15.20;99.90
14517;DHT22;7344;50.864;4.362;2023-07-22T05:09:36;15.20;99.90
14517;DHT22;7344;50.864;4.362;2023-07-22T05:12:02;15.20;99.90
14517;DHT22;7344;50.864;4.362;2023-07-22T05:14:28;15.10;99.90
14517;DHT22;7344;50.864;4.362;2023-07-22T05:16:53;15.20;99.90
14517;DHT22;7344;50.864;4.362;2023-07-22T05:19:19;15.20;99.90
14517;DHT22;7344;50.864;4.362;2023-07-22T05:21:46;15.20;99.90
14517;DHT22;7344;50.864;4.362;2023-07-22T05:24:11;15.20;99.90
14517;DHT22;7344;50.864;4.362;2023-07-22T05:26:37;15.30;99.90
14517;DHT22;7344;50.864;4.362;2023-07-22T05:29:03;15.70;99.90
14517;DHT22;7344;50.864;4.362;2023-07-22T05:31:29;16.50;99.90
14517;DHT22;7344;50.864;4.362;2023-07-22T05:33:54;17.30;61.00
14517;DHT22;7344;50.864;4.362;2023-07-22T05:36:21;17.50;47.80
14517;DHT22;7344;50.864;4.362;2023-07-22T05:38:46;17.50;46.90
14517;DHT22;7344;50.864;4.362;2023-07-22T05:41:12;18.20;36.10
14517;DHT22;7344;50.864;4.362;2023-07-22T05:43:38;19.20;13.20
14517;DHT22;7344;50.864;4.362;2023-07-22T05:46:03;20.40;1.00
14517;DHT22;7344;50.864;4.362;2023-07-22T05:48:29;20.80;1.00
14517;DHT22;7344;50.864;4.362;2023-07-22T05:50:54;21.00;1.00
14517;DHT22;7344;50.864;4.362;2023-07-22T05:53:20;21.70;1.00
14517;DHT22;7344;50.864;4.362;2023-07-22T05:55:46;21.40;1.00
14517;DHT22;7344;50.864;4.362;2023-07-22T05:58:18;21.40;1.00
14517;DHT22;7344;50.864;4.362;2023-07-22T06:00:44;21.40;1.00
14517;DHT22;7344;50.864;4.362;2023-07-22T06:03:09;22.10;1.00
14517;DHT22;7344;50.864;4.362;2023-07-22T06:05:35;22.10;1.00
14517;DHT22;7344;50.864;4.362;2023-07-22T06:08:01;21.70;1.00
14517;DHT22;7344;50.864;4.362;2023-07-22T06:10:26;21.90;1.00
14517;DHT22;7344;50.864;4.362;2023-07-22T06:12:52;22.10;1.00
14517;DHT22;7344;50.864;4.362;2023-07-22T06:15:18;22.10;1.00
14517;DHT22;7344;50.864;4.362;2023-07-22T06:17:44;21.20;1.00
14517;DHT22;7344;50.864;4.362;2023-07-22T06:20:10;21.00;1.00
14517;DHT22;7344;50.864;4.362;2023-07-22T06:22:35;20.50;1.00
14517;DHT22;7344;50.864;4.362;2023-07-22T06:25:01;20.50;1.00
14517;DHT22;7344;50.864;4.362;2023-07-22T06:27:27;20.40;1.00
14517;DHT22;7344;50.864;4.362;2023-07-22T06:29:52;20.10;1.00
14517;DHT22;7344;50.864;4.362;2023-07-22T06:32:18;19.10;3.20
14517;DHT22;7344;50.864;4.362;2023-07-22T06:34:44;18.90;13.90
14517;DHT22;7344;50.864;4.362;2023-07-22T06:37:09;18.90;9.50
14517;DHT22;7344;50.864;4.362;2023-07-22T06:39:35;18.90;17.10
14517;DHT22;7344;50.864;4.362;2023-07-22T06:42:00;19.00;14.70
14517;DHT22;7344;50.864;4.362;2023-07-22T06:44:26;18.70;17.00
14517;DHT22;7344;50.864;4.362;2023-07-22T06:46:51;18.90;15.90
14517;DHT22;7344;50.864;4.362;2023-07-22T06:49:17;18.80;13.40
14517;DHT22;7344;50.864;4.362;2023-07-22T06:51:42;18.70;19.90
14517;DHT22;7344;50.864;4.362;2023-07-22T06:54:08;18.40;24.10
14517;DHT22;7344;50.864;4.362;2023-07-22T06:56:34;18.10;34.00
14517;DHT22;7344;50.864;4.362;2023-07-22T06:58:59;18.20;34.70
14517;DHT22;7344;50.864;4.362;2023-07-22T07:01:25;18.10;34.60
14517;DHT22;7344;50.864;4.362;2023-07-22T07:03:51;18.20;32.30
14517;DHT22;7344;50.864;4.362;2023-07-22T07:06:16;18.10;36.00
14517;DHT22;7344;50.864;4.362;2023-07-22T07:08:42;18.30;34.10
14517;DHT22;7344;50.864;4.362;2023-07-22T07:11:07;18.20;37.70
14517;DHT22;7344;50.864;4.362;2023-07-22T07:13:33;18.40;39.20
14517;DHT22;7344;50.864;4.362;2023-07-22T07:16:19;19.00;22.80
14517;DHT22;7344;50.864;4.362;2023-07-22T07:18:45;19.90;2.70
14517;DHT22;7344;50.864;4.362;2023-07-22T07:21:10;20.70;1.00
14517;DHT22;7344;50.864;4.362;2023-07-22T07:23:36;21.10;1.00
14517;DHT22;7344;50.864;4.362;2023-07-22T07:26:01;21.30;1.00
14517;DHT22;7344;50.864;4.362;2023-07-22T07:28:27;21.50;1.00
14517;DHT22;7344;50.864;4.362;2023-07-22T07:30:53;21.90;1.00
14517;DHT22;7344;50.864;4.362;2023-07-22T07:33:18;22.20;1.00
14517;DHT22;7344;50.864;4.362;2023-07-22T07:35:46;22.60;1.00
14517;DHT22;7344;50.864;4.362;2023-07-22T07:38:12;22.10;1.00
14517;DHT22;7344;50.864;4.362;2023-07-22T07:40:38;21.10;1.00
14517;DHT22;7344;50.864;4.362;2023-07-22T07:43:03;20.70;1.00
14517;DHT22;7344;50.864;4.362;2023-07-22T07:45:29;20.60;1.00
14517;DHT22;7344;50.864;4.362;2023-07-22T07:47:55;20.30;1.00
14517;DHT22;7344;50.864;4.362;2023-07-22T07:50:20;20.60;1.00
14517;DHT22;7344;50.864;4.362;2023-07-22T07:52:46;21.20;1.00
14517;DHT22;7344;50.864;4.362;2023-07-22T07:55:12;21.00;1.00
14517;DHT22;7344;50.864;4.362;2023-07-22T07:57:37;20.70;1.00
14517;DHT22;7344;50.864;4.362;2023-07-22T08:00:03;20.60;1.00
14517;DHT22;7344;50.864;4.362;2023-07-22T08:02:29;20.50;1.00
14517;DHT22;7344;50.864;4.362;2023-07-22T08:04:55;20.60;1.00
14517;DHT22;7344;50.864;4.362;2023-07-22T08:07:21;21.00;1.00
14517;DHT22;7344;50.864;4.362;2023-07-22T08:09:47;21.20;1.00
14517;DHT22;7344;50.864;4.362;2023-07-22T08:12:14;21.30;1.00
14517;DHT22;7344;50.864;4.362;2023-07-22T08:14:40;21.00;1.00
14517;DHT22;7344;50.864;4.362;2023-07-22T08:17:06;20.80;1.00
14517;DHT22;7344;50.864;4.362;2023-07-22T08:19:31;21.00;1.00
14517;DHT22;7344;50.864;4.362;2023-07-22T08:21:57;21.20;1.00
14517;DHT22;7344;50.864;4.362;2023-07-22T08:24:22;21.10;1.00
14517;DHT22;7344;50.864;4.362;2023-07-22T08:26:48;21.10;1.00
14517;DHT22;7344;50.864;4.362;2023-07-22T08:29:14;21.50;1.00
14517;DHT22;7344;50.864;4.362;2023-07-22T08:31:40;21.60;1.00
14517;DHT22;7344;50.864;4.362;2023-07-22T08:34:06;21.80;1.00
14517;DHT22;7344;50.864;4.362;2023-07-22T08:36:31;21.30;1.00
14517;DHT22;7344;50.864;4.362;2023-07-22T08:38:57;20.80;1.00
14517;DHT22;7344;50.864;4.362;2023-07-22T08:41:23;20.80;1.00
14517;DHT22;7344;50.864;4.362;2023-07-22T08:43:51;21.00;1.00
14517;DHT22;7344;50.864;4.362;2023-07-22T08:46:19;21.40;1.00
14517;DHT22;7344;50.864;4.362;2023-07-22T08:48:47;21.80;1.00
14517;DHT22;7344;50.864;4.362;2023-07-22T08:51:17;21.90;1.00
14517;DHT22;7344;50.864;4.362;2023-07-22T08:53:44;21.70;1.00
14517;DHT22;7344;50.864;4.362;2023-07-22T08:56:11;21.70;1.00
14517;DHT22;7344;50.864;4.362;2023-07-22T08:58:37;21.80;1.00
14517;DHT22;7344;50.864;4.362;2023-07-22T09:01:05;22.40;1.00
14517;DHT22;7344;50.864;4.362;2023-07-22T09:03:32;22.70;1.00
14517;DHT22;7344;50.864;4.362;2023-07-22T09:05:58;23.60;1.00
14517;DHT22;7344;50.864;4.362;2023-07-22T09:08:24;24.10;1.00
14517;DHT22;7344;50.864;4.362;2023-07-22T09:10:49;24.10;1.00
14517;DHT22;7344;50.864;4.362;2023-07-22T09:13:17;24.40;1.00
14517;DHT22;7344;50.864;4.362;2023-07-22T09:15:45;24.30;1.00
14517;DHT22;7344;50.864;4.362;2023-07-22T09:18:11;24.70;99.90
14517;DHT22;7344;50.864;4.362;2023-07-22T09:20:36;24.40;99.90
14517;DHT22;7344;50.864;4.362;2023-07-22T09:23:02;24.90;99.90
14517;DHT22;7344;50.864;4.362;2023-07-22T09:25:28;26.20;1.00
14517;DHT22;7344;50.864;4.362;2023-07-22T09:27:57;26.60;99.90
14517;DHT22;7344;50.864;4.362;2023-07-22T09:30:29;27.10;99.90
14517;DHT22;7344;50.864;4.362;2023-07-22T09:32:59;27.20;1.00
14517;DHT22;7344;50.864;4.362;2023-07-22T09:38:10;26.20;1.00
14517;DHT22;7344;50.864;4.362;2023-07-22T09:40:40;26.60;1.00
14517;DHT22;7344;50.864;4.362;2023-07-22T09:43:05;26.00;99.90
14517;DHT22;7344;50.864;4.362;2023-07-22T09:45:32;25.50;1.00
14517;DHT22;7344;50.864;4.362;2023-07-22T09:47:58;26.00;1.00
14517;DHT22;7344;50.864;4.362;2023-07-22T09:50:26;26.80;99.90
14517;DHT22;7344;50.864;4.362;2023-07-22T09:52:56;27.40;1.00
14517;DHT22;7344;50.864;4.362;2023-07-22T09:55:26;27.80;1.00
14517;DHT22;7344;50.864;4.362;2023-07-22T09:58:04;27.40;1.00
14517;DHT22;7344;50.864;4.362;2023-07-22T10:00:36;27.80;1.00
14517;DHT22;7344;50.864;4.362;2023-07-22T10:03:04;28.20;1.00
14517;DHT22;7344;50.864;4.362;2023-07-22T10:05:37;28.20;1.00
14517;DHT22;7344;50.864;4.362;2023-07-22T10:08:05;27.50;1.00
14517;DHT22;7344;50.864;4.362;2023-07-22T10:10:35;26.90;99.90
14517;DHT22;7344;50.864;4.362;2023-07-22T10:13:02;26.80;99.90
14517;DHT22;7344;50.864;4.362;2023-07-22T10:15:31;27.30;1.00
14517;DHT22;7344;50.864;4.362;2023-07-22T10:17:58;27.40;1.00
14517;DHT22;7344;50.864;4.362;2023-07-22T10:20:25;27.70;1.00
14517;DHT22;7344;50.864;4.362;2023-07-22T10:22:51;28.30;1.00
14517;DHT22;7344;50.864;4.362;2023-07-22T10:25:18;27.80;1.00
14517;DHT22;7344;50.864;4.362;2023-07-22T10:27:47;27.60;1.00
14517;DHT22;7344;50.864;4.362;2023-07-22T10:30:14;27.30;1.00
14517;DHT22;7344;50.864;4.362;2023-07-22T10:32:43;26.70;1.00
14517;DHT22;7344;50.864;4.362;2023-07-22T10:35:34;26.20;1.00
14517;DHT22;7344;50.864;4.362;2023-07-22T10:38:12;26.80;1.00
14517;DHT22;7344;50.864;4.362;2023-07-22T10:43:10;27.20;1.00
14517;DHT22;7344;50.864;4.362;2023-07-22T10:45:43;26.90;1.00
14517;DHT22;7344;50.864;4.362;2023-07-22T10:48:13;27.00;1.00
14517;DHT22;7344;50.864;4.362;2023-07-22T10:50:40;27.20;1.00
14517;DHT22;7344;50.864;4.362;2023-07-22T10:53:08;27.10;1.00
14517;DHT22;7344;50.864;4.362;2023-07-22T10:58:33;27.50;1.00
14517;DHT22;7344;50.864;4.362;2023-07-22T11:11:59;25.70;99.90
14517;DHT22;7344;50.864;4.362;2023-07-22T11:14:30;25.20;1.00
14517;DHT22;7344;50.864;4.362;2023-07-22T11:17:00;25.00;99.90
14517;DHT22;7344;50.864;4.362;2023-07-22T11:19:26;24.80;99.90
14517;DHT22;7344;50.864;4.362;2023-07-22T11:21:53;24.70;1.00
14517;DHT22;7344;50.864;4.362;2023-07-22T11:24:21;24.70;1.00
14517;DHT22;7344;50.864;4.362;2023-07-22T11:26:48;24.70;1.00
14517;DHT22;7344;50.864;4.362;2023-07-22T11:29:14;24.50;1.00
14517;DHT22;7344;50.864;4.362;2023-07-22T11:31:43;24.90;99.90
14517;DHT22;7344;50.864;4.362;2023-07-22T11:34:20;24.60;99.90
14517;DHT22;7344;50.864;4.362;2023-07-22T11:36:47;24.90;99.90
14517;DHT22;7344;50.864;4.362;2023-07-22T11:39:18;25.30;1.00
14517;DHT22;7344;50.864;4.362;2023-07-22T11:41:45;25.20;1.00
14517;DHT22;7344;50.864;4.362;2023-07-22T11:44:12;24.40;99.90
14517;DHT22;7344;50.864;4.362;2023-07-22T11:47:04;24.50;1.00
14517;DHT22;7344;50.864;4.362;2023-07-22T11:49:38;25.00;99.90
14517;DHT22;7344;50.864;4.362;2023-07-22T11:52:16;24.90;1.00
14517;DHT22;7344;50.864;4.362;2023-07-22T11:54:46;24.90;1.00
14517;DHT22;7344;50.864;4.362;2023-07-22T11:57:16;25.30;1.00
14517;DHT22;7344;50.864;4.362;2023-07-22T11:59:49;25.40;1.00
14517;DHT22;7344;50.864;4.362;2023-07-22T12:02:21;25.30;1.00
14517;DHT22;7344;50.864;4.362;2023-07-22T12:05:01;25.40;99.90
14517;DHT22;7344;50.864;4.362;2023-07-22T12:07:35;25.20;1.00
14517;DHT22;7344;50.864;4.362;2023-07-22T12:10:03;25.30;1.00
14517;DHT22;7344;50.864;4.362;2023-07-22T12:12:39;25.00;99.90
14517;DHT22;7344;50.864;4.362;2023-07-22T12:15:10;25.20;99.90
14517;DHT22;7344;50.864;4.362;2023-07-22T12:17:52;25.20;99.90
14517;DHT22;7344;50.864;4.362;2023-07-22T12:20:18;25.00;1.00
14517;DHT22;7344;50.864;4.362;2023-07-22T12:22:44;24.50;1.00
14517;DHT22;7344;50.864;4.362;2023-07-22T12:25:10;24.10;12.30
14517;DHT22;7344;50.864;4.362;2023-07-22T12:27:37;24.10;99.90
14517;DHT22;7344;50.864;4.362;2023-07-22T12:30:04;24.10;99.90
14517;DHT22;7344;50.864;4.362;2023-07-22T12:32:29;24.40;99.90
14517;DHT22;7344;50.864;4.362;2023-07-22T12:34:55;24.10;1.00
14517;DHT22;7344;50.864;4.362;2023-07-22T12:37:20;23.90;1.00
14517;DHT22;7344;50.864;4.362;2023-07-22T12:39:46;23.70;1.00
14517;DHT22;7344;50.864;4.362;2023-07-22T12:42:12;23.70;1.00
14517;DHT22;7344;50.864;4.362;2023-07-22T12:44:37;23.60;1.00
14517;DHT22;7344;50.864;4.362;2023-07-22T12:47:03;23.80;88.30
14517;DHT22;7344;50.864;4.362;2023-07-22T12:49:28;24.00;1.00
14517;DHT22;7344;50.864;4.362;2023-07-22T12:51:54;24.10;1.00
14517;DHT22;7344;50.864;4.362;2023-07-22T12:54:20;24.10;1.00
14517;DHT22;7344;50.864;4.362;2023-07-22T12:56:45;24.10;1.00
14517;DHT22;7344;50.864;4.362;2023-07-22T12:59:11;24.10;1.00
14517;DHT22;7344;50.864;4.362;2023-07-22T13:01:37;24.40;1.00
14517;DHT22;7344;50.864;4.362;2023-07-22T13:04:04;24.00;99.90
14517;DHT22;7344;50.864;4.362;2023-07-22T13:06:31;24.20;99.90
14517;DHT22;7344;50.864;4.362;2023-07-22T13:08:56;24.50;99.90
14517;DHT22;7344;50.864;4.362;2023-07-22T13:11:22;24.10;1.00
14517;DHT22;7344;50.864;4.362;2023-07-22T13:13:47;23.90;1.00
14517;DHT22;7344;50.864;4.362;2023-07-22T13:16:13;23.90;1.00
14517;DHT22;7344;50.864;4.362;2023-07-22T13:18:38;23.80;1.00
14517;DHT22;7344;50.864;4.362;2023-07-22T13:21:04;23.80;1.00
14517;DHT22;7344;50.864;4.362;2023-07-22T13:23:30;23.70;99.90
14517;DHT22;7344;50.864;4.362;2023-07-22T13:25:56;23.80;99.90
14517;DHT22;7344;50.864;4.362;2023-07-22T13:28:21;23.90;99.90
14517;DHT22;7344;50.864;4.362;2023-07-22T13:30:47;23.60;1.00
14517;DHT22;7344;50.864;4.362;2023-07-22T13:33:12;23.70;1.00
14517;DHT22;7344;50.864;4.362;2023-07-22T13:35:38;23.80;1.00
14517;DHT22;7344;50.864;4.362;2023-07-22T13:38:03;24.20;99.90
14517;DHT22;7344;50.864;4.362;2023-07-22T13:40:29;24.30;99.90
14517;DHT22;7344;50.864;4.362;2023-07-22T13:42:56;24.40;99.90
14517;DHT22;7344;50.864;4.362;2023-07-22T13:45:21;24.00;99.90
14517;DHT22;7344;50.864;4.362;2023-07-22T13:47:47;23.70;1.00
14517;DHT22;7344;50.864;4.362;2023-07-22T13:50:13;24.00;99.90
14517;DHT22;7344;50.864;4.362;2023-07-22T13:52:38;24.10;1.00
14517;DHT22;7344;50.864;4.362;2023-07-22T13:55:05;24.10;1.00
14517;DHT22;7344;50.864;4.362;2023-07-22T13:57:31;23.60;99.90
14517;DHT22;7344;50.864;4.362;2023-07-22T13:59:57;23.40;99.90
14517;DHT22;7344;50.864;4.362;2023-07-22T14:02:22;23.10;1.00
14517;DHT22;7344;50.864;4.362;2023-07-22T14:04:48;22.60;74.40
14517;DHT22;7344;50.864;4.362;2023-07-22T14:07:13;22.50;99.90
14517;DHT22;7344;50.864;4.362;2023-07-22T14:09:39;22.30;1.00
14517;DHT22;7344;50.864;4.362;2023-07-22T14:12:05;22.10;1.00
14517;DHT22;7344;50.864;4.362;2023-07-22T14:14:31;21.90;1.00
14517;DHT22;7344;50.864;4.362;2023-07-22T14:16:56;21.80;99.90
14517;DHT22;7344;50.864;4.362;2023-07-22T14:19:23;21.80;99.90
14517;DHT22;7344;50.864;4.362;2023-07-22T14:21:49;21.80;99.90
14517;DHT22;7344;50.864;4.362;2023-07-22T14:24:15;21.60;99.90
14517;DHT22;7344;50.864;4.362;2023-07-22T14:26:40;21.60;99.90
14517;DHT22;7344;50.864;4.362;2023-07-22T14:29:06;21.60;1.00
14517;DHT22;7344;50.864;4.362;2023-07-22T14:31:31;21.80;99.90
14517;DHT22;7344;50.864;4.362;2023-07-22T14:33:57;22.00;99.90
14517;DHT22;7344;50.864;4.362;2023-07-22T14:36:23;22.10;99.90
14517;DHT22;7344;50.864;4.362;2023-07-22T14:38:49;22.40;99.90
14517;DHT22;7344;50.864;4.362;2023-07-22T14:41:15;22.50;99.90
14517;DHT22;7344;50.864;4.362;2023-07-22T14:43:41;22.50;99.90
14517;DHT22;7344;50.864;4.362;2023-07-22T14:46:06;22.80;1.00
14517;DHT22;7344;50.864;4.362;2023-07-22T14:48:32;23.00;1.00
14517;DHT22;7344;50.864;4.362;2023-07-22T14:50:57;22.90;1.00
14517;DHT22;7344;50.864;4.362;2023-07-22T14:53:23;22.90;4.40
14517;DHT22;7344;50.864;4.362;2023-07-22T14:55:49;23.20;1.00
14517;DHT22;7344;50.864;4.362;2023-07-22T14:58:14;23.40;1.00
14517;DHT22;7344;50.864;4.362;2023-07-22T15:00:40;23.50;1.00
14517;DHT22;7344;50.864;4.362;2023-07-22T15:03:06;23.30;99.90
14517;DHT22;7344;50.864;4.362;2023-07-22T15:05:31;23.20;1.00
14517;DHT22;7344;50.864;4.362;2023-07-22T15:07:57;23.10;1.00
14517;DHT22;7344;50.864;4.362;2023-07-22T15:10:23;22.80;88.50
14517;DHT22;7344;50.864;4.362;2023-07-22T15:12:48;23.00;99.90
14517;DHT22;7344;50.864;4.362;2023-07-22T15:15:14;23.10;1.00
14517;DHT22;7344;50.864;4.362;2023-07-22T15:17:40;23.20;1.00
14517;DHT22;7344;50.864;4.362;2023-07-22T15:20:06;23.40;1.00
14517;DHT22;7344;50.864;4.362;2023-07-22T15:22:31;23.60;99.90
14517;DHT22;7344;50.864;4.362;2023-07-22T15:24:57;23.60;9.10
14517;DHT22;7344;50.864;4.362;2023-07-22T15:27:22;23.30;1.00
14517;DHT22;7344;50.864;4.362;2023-07-22T15:29:48;23.30;1.00
14517;DHT22;7344;50.864;4.362;2023-07-22T15:32:14;23.40;1.00
14517;DHT22;7344;50.864;4.362;2023-07-22T15:34:41;23.30;99.90
14517;DHT22;7344;50.864;4.362;2023-07-22T15:37:06;23.30;1.00
14517;DHT22;7344;50.864;4.362;2023-07-22T15:39:32;23.20;1.00
14517;DHT22;7344;50.864;4.362;2023-07-22T15:41:57;23.40;99.90
14517;DHT22;7344;50.864;4.362;2023-07-22T15:44:23;23.10;99.90
14517;DHT22;7344;50.864;4.362;2023-07-22T15:46:53;22.90;99.90
14517;DHT22;7344;50.864;4.362;2023-07-22T15:49:18;22.80;99.90
14517;DHT22;7344;50.864;4.362;2023-07-22T15:51:44;22.50;1.00
14517;DHT22;7344;50.864;4.362;2023-07-22T15:54:09;22.50;1.00
14517;DHT22;7344;50.864;4.362;2023-07-22T15:56:35;22.60;1.00
14517;DHT22;7344;50.864;4.362;2023-07-22T15:59:02;22.70;1.00
14517;DHT22;7344;50.864;4.362;2023-07-22T16:01:28;22.50;1.00
14517;DHT22;7344;50.864;4.362;2023-07-22T16:03:54;22.50;1.00
14517;DHT22;7344;50.864;4.362;2023-07-22T16:06:20;22.50;1.00
14517;DHT22;7344;50.864;4.362;2023-07-22T16:08:45;22.40;92.10